sensor_id;sensor_type;location;lat;lon;timestamp;P1;durP1;ratioP1;P2;durP2;ratioP2
15635;SDS011;7917;50.818;6.972;2023-04-24T00:00:18;1.10;;;0.98;;
15635;SDS011;7917;50.818;6.972;2023-04-24T00:02:45;1.70;;;1.00;;
15635;SDS011;7917;50.818;6.972;2023-04-24T00:05:12;1.05;;;0.88;;
15635;SDS011;7917;50.818;6.972;2023-04-24T00:07:39;1.48;;;1.38;;
15635;SDS011;7917;50.818;6.972;2023-04-24T00:10:06;1.55;;;1.17;;
15635;SDS011;7917;50.818;6.972;2023-04-24T00:12:37;0.95;;;0.90;;
15635;SDS011;7917;50.818;6.972;2023-04-24T00:15:06;1.30;;;1.20;;
15635;SDS011;7917;50.818;6.972;2023-04-24T00:17:33;1.33;;;1.23;;
15635;SDS011;7917;50.818;6.972;2023-04-24T00:20:00;1.30;;;1.20;;
15635;SDS011;7917;50.818;6.972;2023-04-24T00:22:29;2.95;;;1.15;;
15635;SDS011;7917;50.818;6.972;2023-04-24T00:24:56;1.95;;;0.90;;
15635;SDS011;7917;50.818;6.972;2023-04-24T00:27:23;1.55;;;1.10;;
15635;SDS011;7917;50.818;6.972;2023-04-24T00:29:49;2.15;;;1.00;;
15635;SDS011;7917;50.818;6.972;2023-04-24T00:32:17;2.67;;;1.00;;
15635;SDS011;7917;50.818;6.972;2023-04-24T00:34:43;1.85;;;1.30;;
15635;SDS011;7917;50.818;6.972;2023-04-24T00:37:10;1.90;;;1.13;;
15635;SDS011;7917;50.818;6.972;2023-04-24T00:39:37;2.22;;;1.30;;
15635;SDS011;7917;50.818;6.972;2023-04-24T00:42:04;1.52;;;1.10;;
15635;SDS011;7917;50.818;6.972;2023-04-24T00:44:32;1.52;;;1.10;;
15635;SDS011;7917;50.818;6.972;2023-04-24T00:47:01;1.77;;;1.10;;
15635;SDS011;7917;50.818;6.972;2023-04-24T00:49:29;2.25;;;1.40;;
15635;SDS011;7917;50.818;6.972;2023-04-24T00:51:56;2.78;;;1.00;;
15635;SDS011;7917;50.818;6.972;2023-04-24T00:54:24;1.77;;;1.40;;
15635;SDS011;7917;50.818;6.972;2023-04-24T00:56:51;2.83;;;1.10;;
15635;SDS011;7917;50.818;6.972;2023-04-24T00:59:18;1.85;;;1.10;;
15635;SDS011;7917;50.818;6.972;2023-04-24T01:01:44;1.20;;;1.05;;
15635;SDS011;7917;50.818;6.972;2023-04-24T01:04:12;1.17;;;1.08;;
15635;SDS011;7917;50.818;6.972;2023-04-24T01:06:39;1.20;;;1.05;;
15635;SDS011;7917;50.818;6.972;2023-04-24T01:09:08;4.32;;;1.38;;
15635;SDS011;7917;50.818;6.972;2023-04-24T01:11:37;2.92;;;1.25;;
15635;SDS011;7917;50.818;6.972;2023-04-24T01:14:04;1.67;;;1.40;;
15635;SDS011;7917;50.818;6.972;2023-04-24T01:16:30;3.35;;;1.13;;
15635;SDS011;7917;50.818;6.972;2023-04-24T01:18:57;1.40;;;1.30;;
15635;SDS011;7917;50.818;6.972;2023-04-24T01:21:23;3.08;;;1.30;;
15635;SDS011;7917;50.818;6.972;2023-04-24T01:23:55;1.70;;;1.60;;
15635;SDS011;7917;50.818;6.972;2023-04-24T01:26:25;1.40;;;1.30;;
15635;SDS011;7917;50.818;6.972;2023-04-24T01:28:51;2.88;;;1.40;;
15635;SDS011;7917;50.818;6.972;2023-04-24T01:31:18;1.90;;;1.65;;
15635;SDS011;7917;50.818;6.972;2023-04-24T01:33:45;2.10;;;1.90;;
15635;SDS011;7917;50.818;6.972;2023-04-24T01:36:13;4.53;;;1.92;;
15635;SDS011;7917;50.818;6.972;2023-04-24T01:38:41;2.72;;;1.85;;
15635;SDS011;7917;50.818;6.972;2023-04-24T01:41:08;2.25;;;1.88;;
15635;SDS011;7917;50.818;6.972;2023-04-24T01:43:35;2.35;;;2.15;;
15635;SDS011;7917;50.818;6.972;2023-04-24T01:46:02;4.38;;;2.00;;
15635;SDS011;7917;50.818;6.972;2023-04-24T01:48:31;3.05;;;2.38;;
15635;SDS011;7917;50.818;6.972;2023-04-24T01:50:59;2.50;;;2.30;;
15635;SDS011;7917;50.818;6.972;2023-04-24T01:53:25;2.33;;;1.98;;
15635;SDS011;7917;50.818;6.972;2023-04-24T01:55:52;2.17;;;1.98;;
15635;SDS011;7917;50.818;6.972;2023-04-24T01:58:22;3.40;;;2.10;;
15635;SDS011;7917;50.818;6.972;2023-04-24T02:00:49;2.90;;;2.40;;
15635;SDS011;7917;50.818;6.972;2023-04-24T02:03:16;5.70;;;2.75;;
15635;SDS011;7917;50.818;6.972;2023-04-24T02:05:43;3.45;;;2.80;;
15635;SDS011;7917;50.818;6.972;2023-04-24T02:08:11;5.63;;;2.95;;
15635;SDS011;7917;50.818;6.972;2023-04-24T02:10:38;2.85;;;2.30;;
15635;SDS011;7917;50.818;6.972;2023-04-24T02:13:05;4.70;;;2.63;;
15635;SDS011;7917;50.818;6.972;2023-04-24T02:15:32;3.53;;;2.55;;
15635;SDS011;7917;50.818;6.972;2023-04-24T02:17:59;4.72;;;3.05;;
15635;SDS011;7917;50.818;6.972;2023-04-24T02:20:25;3.85;;;2.97;;
15635;SDS011;7917;50.818;6.972;2023-04-24T02:22:52;5.38;;;3.22;;
15635;SDS011;7917;50.818;6.972;2023-04-24T02:25:19;5.05;;;3.55;;
15635;SDS011;7917;50.818;6.972;2023-04-24T02:27:45;4.78;;;4.05;;
15635;SDS011;7917;50.818;6.972;2023-04-24T02:30:12;4.22;;;3.83;;
15635;SDS011;7917;50.818;6.972;2023-04-24T02:32:40;5.45;;;4.32;;
15635;SDS011;7917;50.818;6.972;2023-04-24T02:35:07;6.93;;;5.22;;
15635;SDS011;7917;50.818;6.972;2023-04-24T02:37:34;9.07;;;5.65;;
15635;SDS011;7917;50.818;6.972;2023-04-24T02:40:00;7.40;;;5.20;;
15635;SDS011;7917;50.818;6.972;2023-04-24T02:42:34;6.53;;;4.95;;
15635;SDS011;7917;50.818;6.972;2023-04-24T02:45:01;7.30;;;5.72;;
15635;SDS011;7917;50.818;6.972;2023-04-24T02:47:30;8.13;;;5.68;;
15635;SDS011;7917;50.818;6.972;2023-04-24T02:49:58;6.53;;;5.63;;
15635;SDS011;7917;50.818;6.972;2023-04-24T02:52:27;7.63;;;5.70;;
15635;SDS011;7917;50.818;6.972;2023-04-24T02:54:54;8.32;;;6.10;;
15635;SDS011;7917;50.818;6.972;2023-04-24T02:57:20;8.88;;;6.32;;
15635;SDS011;7917;50.818;6.972;2023-04-24T02:59:47;9.98;;;5.90;;
15635;SDS011;7917;50.818;6.972;2023-04-24T03:02:20;7.72;;;5.40;;
15635;SDS011;7917;50.818;6.972;2023-04-24T03:04:46;7.88;;;5.45;;
15635;SDS011;7917;50.818;6.972;2023-04-24T03:07:14;8.18;;;6.18;;
15635;SDS011;7917;50.818;6.972;2023-04-24T03:09:46;8.38;;;5.70;;
15635;SDS011;7917;50.818;6.972;2023-04-24T03:12:12;10.57;;;5.70;;
15635;SDS011;7917;50.818;6.972;2023-04-24T03:14:39;6.32;;;5.38;;
15635;SDS011;7917;50.818;6.972;2023-04-24T03:17:12;9.18;;;6.43;;
15635;SDS011;7917;50.818;6.972;2023-04-24T03:19:39;7.00;;;5.57;;
15635;SDS011;7917;50.818;6.972;2023-04-24T03:22:06;7.13;;;5.93;;
15635;SDS011;7917;50.818;6.972;2023-04-24T03:24:35;11.45;;;5.65;;
15635;SDS011;7917;50.818;6.972;2023-04-24T03:27:01;7.72;;;6.30;;
15635;SDS011;7917;50.818;6.972;2023-04-24T03:29:28;6.78;;;5.80;;
15635;SDS011;7917;50.818;6.972;2023-04-24T03:31:55;7.15;;;5.90;;
15635;SDS011;7917;50.818;6.972;2023-04-24T03:34:22;8.48;;;5.93;;
15635;SDS011;7917;50.818;6.972;2023-04-24T03:36:48;9.55;;;6.43;;
15635;SDS011;7917;50.818;6.972;2023-04-24T03:39:15;8.65;;;6.28;;
15635;SDS011;7917;50.818;6.972;2023-04-24T03:41:43;8.10;;;5.57;;
15635;SDS011;7917;50.818;6.972;2023-04-24T03:44:09;6.45;;;5.70;;
15635;SDS011;7917;50.818;6.972;2023-04-24T03:46:39;7.95;;;5.68;;
15635;SDS011;7917;50.818;6.972;2023-04-24T03:49:06;7.45;;;6.05;;
15635;SDS011;7917;50.818;6.972;2023-04-24T03:51:33;6.35;;;5.70;;
15635;SDS011;7917;50.818;6.972;2023-04-24T03:53:59;7.95;;;5.70;;
15635;SDS011;7917;50.818;6.972;2023-04-24T03:56:26;9.35;;;5.72;;
15635;SDS011;7917;50.818;6.972;2023-04-24T03:58:54;6.57;;;5.20;;
15635;SDS011;7917;50.818;6.972;2023-04-24T04:01:21;7.15;;;5.75;;
15635;SDS011;7917;50.818;6.972;2023-04-24T04:06:36;8.77;;;5.63;;
15635;SDS011;7917;50.818;6.972;2023-04-24T04:09:03;6.65;;;5.78;;
15635;SDS011;7917;50.818;6.972;2023-04-24T04:11:30;9.55;;;5.95;;
15635;SDS011;7917;50.818;6.972;2023-04-24T04:13:57;7.25;;;5.68;;
15635;SDS011;7917;50.818;6.972;2023-04-24T04:16:27;7.90;;;6.32;;
15635;SDS011;7917;50.818;6.972;2023-04-24T04:18:54;7.78;;;6.15;;
15635;SDS011;7917;50.818;6.972;2023-04-24T04:21:21;8.43;;;6.13;;
15635;SDS011;7917;50.818;6.972;2023-04-24T04:23:48;8.30;;;6.10;;
15635;SDS011;7917;50.818;6.972;2023-04-24T04:26:17;8.35;;;5.88;;
15635;SDS011;7917;50.818;6.972;2023-04-24T04:28:46;7.28;;;5.93;;
15635;SDS011;7917;50.818;6.972;2023-04-24T04:31:14;7.57;;;5.85;;
15635;SDS011;7917;50.818;6.972;2023-04-24T04:33:41;8.95;;;5.97;;
15635;SDS011;7917;50.818;6.972;2023-04-24T04:36:08;8.07;;;6.40;;
15635;SDS011;7917;50.818;6.972;2023-04-24T04:38:35;9.95;;;6.05;;
15635;SDS011;7917;50.818;6.972;2023-04-24T04:41:02;10.80;;;6.43;;
15635;SDS011;7917;50.818;6.972;2023-04-24T04:43:29;7.20;;;6.05;;
15635;SDS011;7917;50.818;6.972;2023-04-24T04:45:58;11.25;;;7.50;;
15635;SDS011;7917;50.818;6.972;2023-04-24T04:48:29;9.90;;;6.55;;
15635;SDS011;7917;50.818;6.972;2023-04-24T04:50:57;7.90;;;6.60;;
15635;SDS011;7917;50.818;6.972;2023-04-24T04:53:24;10.30;;;7.32;;
15635;SDS011;7917;50.818;6.972;2023-04-24T04:55:51;8.07;;;7.10;;
15635;SDS011;7917;50.818;6.972;2023-04-24T04:58:18;9.48;;;6.97;;
15635;SDS011;7917;50.818;6.972;2023-04-24T05:00:45;10.02;;;7.22;;
15635;SDS011;7917;50.818;6.972;2023-04-24T05:03:18;9.27;;;7.35;;
15635;SDS011;7917;50.818;6.972;2023-04-24T05:05:45;8.95;;;7.93;;
15635;SDS011;7917;50.818;6.972;2023-04-24T05:08:12;9.70;;;7.68;;
15635;SDS011;7917;50.818;6.972;2023-04-24T05:10:40;11.00;;;8.27;;
15635;SDS011;7917;50.818;6.972;2023-04-24T05:13:07;10.02;;;7.70;;
15635;SDS011;7917;50.818;6.972;2023-04-24T05:15:34;9.35;;;7.60;;
15635;SDS011;7917;50.818;6.972;2023-04-24T05:18:01;8.70;;;7.45;;
15635;SDS011;7917;50.818;6.972;2023-04-24T05:20:28;8.57;;;7.68;;
15635;SDS011;7917;50.818;6.972;2023-04-24T05:22:55;9.65;;;7.25;;
15635;SDS011;7917;50.818;6.972;2023-04-24T05:25:25;11.45;;;8.25;;
15635;SDS011;7917;50.818;6.972;2023-04-24T05:27:51;10.88;;;7.25;;
15635;SDS011;7917;50.818;6.972;2023-04-24T05:30:20;11.10;;;7.70;;
15635;SDS011;7917;50.818;6.972;2023-04-24T05:32:47;10.77;;;7.78;;
15635;SDS011;7917;50.818;6.972;2023-04-24T05:35:14;10.32;;;7.55;;
15635;SDS011;7917;50.818;6.972;2023-04-24T05:37:42;10.18;;;8.20;;
15635;SDS011;7917;50.818;6.972;2023-04-24T05:40:10;9.05;;;7.15;;
15635;SDS011;7917;50.818;6.972;2023-04-24T05:42:37;11.20;;;7.43;;
15635;SDS011;7917;50.818;6.972;2023-04-24T05:45:04;11.90;;;8.27;;
15635;SDS011;7917;50.818;6.972;2023-04-24T05:47:40;8.82;;;7.35;;
15635;SDS011;7917;50.818;6.972;2023-04-24T05:52:49;9.27;;;7.75;;
15635;SDS011;7917;50.818;6.972;2023-04-24T05:55:20;14.18;;;7.72;;
15635;SDS011;7917;50.818;6.972;2023-04-24T05:57:46;8.65;;;7.75;;
15635;SDS011;7917;50.818;6.972;2023-04-24T06:00:13;9.45;;;7.50;;
15635;SDS011;7917;50.818;6.972;2023-04-24T06:02:41;8.65;;;6.57;;
15635;SDS011;7917;50.818;6.972;2023-04-24T06:05:08;9.93;;;7.70;;
15635;SDS011;7917;50.818;6.972;2023-04-24T06:07:35;11.70;;;7.50;;
15635;SDS011;7917;50.818;6.972;2023-04-24T06:10:01;8.82;;;6.82;;
15635;SDS011;7917;50.818;6.972;2023-04-24T06:12:29;9.52;;;6.50;;
15635;SDS011;7917;50.818;6.972;2023-04-24T06:14:56;9.82;;;6.25;;
15635;SDS011;7917;50.818;6.972;2023-04-24T06:17:23;10.02;;;5.85;;
15635;SDS011;7917;50.818;6.972;2023-04-24T06:20:03;6.18;;;5.57;;
15635;SDS011;7917;50.818;6.972;2023-04-24T06:22:33;8.05;;;4.93;;
15635;SDS011;7917;50.818;6.972;2023-04-24T06:25:01;7.13;;;4.90;;
15635;SDS011;7917;50.818;6.972;2023-04-24T06:27:27;5.43;;;4.15;;
15635;SDS011;7917;50.818;6.972;2023-04-24T06:29:55;5.47;;;3.90;;
15635;SDS011;7917;50.818;6.972;2023-04-24T06:32:22;4.97;;;4.13;;
15635;SDS011;7917;50.818;6.972;2023-04-24T06:34:50;4.75;;;4.00;;
15635;SDS011;7917;50.818;6.972;2023-04-24T06:37:18;5.82;;;3.30;;
15635;SDS011;7917;50.818;6.972;2023-04-24T06:39:45;4.22;;;3.40;;
15635;SDS011;7917;50.818;6.972;2023-04-24T06:42:12;3.95;;;3.25;;
15635;SDS011;7917;50.818;6.972;2023-04-24T06:44:39;4.35;;;3.35;;
15635;SDS011;7917;50.818;6.972;2023-04-24T06:47:06;4.00;;;3.17;;
15635;SDS011;7917;50.818;6.972;2023-04-24T06:49:33;4.07;;;3.60;;
15635;SDS011;7917;50.818;6.972;2023-04-24T06:52:00;3.22;;;2.92;;
15635;SDS011;7917;50.818;6.972;2023-04-24T06:54:27;3.33;;;3.03;;
15635;SDS011;7917;50.818;6.972;2023-04-24T06:56:54;3.25;;;2.83;;
15635;SDS011;7917;50.818;6.972;2023-04-24T06:59:22;3.90;;;2.70;;
15635;SDS011;7917;50.818;6.972;2023-04-24T07:01:50;3.33;;;2.80;;
15635;SDS011;7917;50.818;6.972;2023-04-24T07:04:17;4.75;;;3.20;;
15635;SDS011;7917;50.818;6.972;2023-04-24T07:06:43;2.97;;;2.72;;
15635;SDS011;7917;50.818;6.972;2023-04-24T07:09:11;4.13;;;2.40;;
15635;SDS011;7917;50.818;6.972;2023-04-24T07:11:39;4.05;;;2.70;;
15635;SDS011;7917;50.818;6.972;2023-04-24T07:14:06;2.50;;;2.30;;
15635;SDS011;7917;50.818;6.972;2023-04-24T07:16:32;3.03;;;2.15;;
15635;SDS011;7917;50.818;6.972;2023-04-24T07:19:00;3.05;;;2.63;;
15635;SDS011;7917;50.818;6.972;2023-04-24T07:21:27;3.20;;;2.65;;
15635;SDS011;7917;50.818;6.972;2023-04-24T07:23:54;2.30;;;1.92;;
15635;SDS011;7917;50.818;6.972;2023-04-24T07:26:21;2.05;;;1.85;;
15635;SDS011;7917;50.818;6.972;2023-04-24T07:28:47;2.30;;;2.13;;
15635;SDS011;7917;50.818;6.972;2023-04-24T07:31:14;3.10;;;1.77;;
15635;SDS011;7917;50.818;6.972;2023-04-24T07:33:41;2.10;;;1.60;;
15635;SDS011;7917;50.818;6.972;2023-04-24T07:36:08;2.00;;;1.80;;
15635;SDS011;7917;50.818;6.972;2023-04-24T07:38:40;2.08;;;1.88;;
15635;SDS011;7917;50.818;6.972;2023-04-24T07:41:07;1.95;;;1.58;;
15635;SDS011;7917;50.818;6.972;2023-04-24T07:43:34;1.45;;;1.23;;
15635;SDS011;7917;50.818;6.972;2023-04-24T07:46:01;2.58;;;1.40;;
15635;SDS011;7917;50.818;6.972;2023-04-24T07:48:28;1.50;;;1.40;;
15635;SDS011;7917;50.818;6.972;2023-04-24T07:50:58;1.40;;;1.30;;
15635;SDS011;7917;50.818;6.972;2023-04-24T07:53:26;2.33;;;1.30;;
15635;SDS011;7917;50.818;6.972;2023-04-24T07:55:55;1.63;;;1.52;;
15635;SDS011;7917;50.818;6.972;2023-04-24T07:58:22;2.05;;;1.40;;
15635;SDS011;7917;50.818;6.972;2023-04-24T08:00:49;1.35;;;1.25;;
15635;SDS011;7917;50.818;6.972;2023-04-24T08:03:16;1.73;;;1.27;;
15635;SDS011;7917;50.818;6.972;2023-04-24T08:05:45;2.78;;;1.77;;
15635;SDS011;7917;50.818;6.972;2023-04-24T08:08:12;2.45;;;1.90;;
15635;SDS011;7917;50.818;6.972;2023-04-24T08:10:39;2.33;;;1.75;;
15635;SDS011;7917;50.818;6.972;2023-04-24T08:13:06;2.90;;;1.83;;
15635;SDS011;7917;50.818;6.972;2023-04-24T08:15:33;3.10;;;2.17;;
15635;SDS011;7917;50.818;6.972;2023-04-24T08:18:00;3.60;;;2.17;;
15635;SDS011;7917;50.818;6.972;2023-04-24T08:20:27;2.53;;;2.20;;
15635;SDS011;7917;50.818;6.972;2023-04-24T08:22:54;2.17;;;1.98;;
15635;SDS011;7917;50.818;6.972;2023-04-24T08:25:22;3.65;;;2.50;;
15635;SDS011;7917;50.818;6.972;2023-04-24T08:27:52;6.07;;;2.63;;
15635;SDS011;7917;50.818;6.972;2023-04-24T08:30:19;3.40;;;2.33;;
15635;SDS011;7917;50.818;6.972;2023-04-24T08:32:47;4.75;;;2.20;;
15635;SDS011;7917;50.818;6.972;2023-04-24T08:35:14;3.35;;;2.65;;
15635;SDS011;7917;50.818;6.972;2023-04-24T08:37:41;5.25;;;2.67;;
15635;SDS011;7917;50.818;6.972;2023-04-24T08:40:10;3.33;;;2.55;;
15635;SDS011;7917;50.818;6.972;2023-04-24T08:42:39;2.10;;;1.83;;
15635;SDS011;7917;50.818;6.972;2023-04-24T08:45:11;2.28;;;1.80;;
15635;SDS011;7917;50.818;6.972;2023-04-24T08:47:39;3.25;;;2.22;;
15635;SDS011;7917;50.818;6.972;2023-04-24T08:50:07;3.22;;;2.50;;
15635;SDS011;7917;50.818;6.972;2023-04-24T08:52:35;4.53;;;2.50;;
15635;SDS011;7917;50.818;6.972;2023-04-24T08:55:02;5.20;;;2.90;;
15635;SDS011;7917;50.818;6.972;2023-04-24T08:57:29;5.95;;;1.98;;
15635;SDS011;7917;50.818;6.972;2023-04-24T08:59:56;4.35;;;2.40;;
15635;SDS011;7917;50.818;6.972;2023-04-24T09:02:25;3.15;;;2.15;;
15635;SDS011;7917;50.818;6.972;2023-04-24T09:04:52;3.38;;;2.92;;
15635;SDS011;7917;50.818;6.972;2023-04-24T09:07:19;5.90;;;3.53;;
15635;SDS011;7917;50.818;6.972;2023-04-24T09:09:48;4.55;;;3.28;;
15635;SDS011;7917;50.818;6.972;2023-04-24T09:12:17;8.30;;;3.35;;
15635;SDS011;7917;50.818;6.972;2023-04-24T09:14:50;7.93;;;3.38;;
15635;SDS011;7917;50.818;6.972;2023-04-24T09:17:18;4.90;;;3.42;;
15635;SDS011;7917;50.818;6.972;2023-04-24T09:19:46;4.72;;;4.18;;
15635;SDS011;7917;50.818;6.972;2023-04-24T09:22:13;5.95;;;3.95;;
15635;SDS011;7917;50.818;6.972;2023-04-24T09:24:41;4.82;;;3.97;;
15635;SDS011;7917;50.818;6.972;2023-04-24T09:27:10;7.93;;;4.57;;
15635;SDS011;7917;50.818;6.972;2023-04-24T09:29:38;5.97;;;4.18;;
15635;SDS011;7917;50.818;6.972;2023-04-24T09:32:17;5.47;;;4.28;;
15635;SDS011;7917;50.818;6.972;2023-04-24T09:34:47;6.55;;;4.22;;
15635;SDS011;7917;50.818;6.972;2023-04-24T09:37:20;5.05;;;3.78;;
15635;SDS011;7917;50.818;6.972;2023-04-24T09:40:06;6.65;;;4.40;;
15635;SDS011;7917;50.818;6.972;2023-04-24T09:42:38;6.25;;;4.55;;
15635;SDS011;7917;50.818;6.972;2023-04-24T09:45:08;6.85;;;4.80;;
15635;SDS011;7917;50.818;6.972;2023-04-24T09:47:36;6.60;;;4.50;;
15635;SDS011;7917;50.818;6.972;2023-04-24T09:50:09;5.85;;;4.70;;
15635;SDS011;7917;50.818;6.972;2023-04-24T09:52:41;8.07;;;4.82;;
15635;SDS011;7917;50.818;6.972;2023-04-24T09:55:16;7.65;;;5.57;;
15635;SDS011;7917;50.818;6.972;2023-04-24T09:57:49;8.27;;;4.90;;
15635;SDS011;7917;50.818;6.972;2023-04-24T10:00:23;6.35;;;4.63;;
15635;SDS011;7917;50.818;6.972;2023-04-24T10:02:54;8.05;;;4.60;;
15635;SDS011;7917;50.818;6.972;2023-04-24T10:05:28;6.07;;;3.85;;
15635;SDS011;7917;50.818;6.972;2023-04-24T10:08:00;5.43;;;3.83;;
15635;SDS011;7917;50.818;6.972;2023-04-24T10:10:29;8.27;;;4.07;;
15635;SDS011;7917;50.818;6.972;2023-04-24T10:12:56;6.47;;;4.28;;
15635;SDS011;7917;50.818;6.972;2023-04-24T10:15:23;5.57;;;4.47;;
15635;SDS011;7917;50.818;6.972;2023-04-24T10:17:51;8.57;;;4.00;;
15635;SDS011;7917;50.818;6.972;2023-04-24T10:20:19;4.38;;;3.40;;
15635;SDS011;7917;50.818;6.972;2023-04-24T10:22:48;5.55;;;3.80;;
15635;SDS011;7917;50.818;6.972;2023-04-24T10:25:17;5.30;;;3.75;;
15635;SDS011;7917;50.818;6.972;2023-04-24T10:27:45;5.40;;;4.13;;
15635;SDS011;7917;50.818;6.972;2023-04-24T10:30:13;6.65;;;3.90;;
15635;SDS011;7917;50.818;6.972;2023-04-24T10:32:40;8.15;;;4.93;;
15635;SDS011;7917;50.818;6.972;2023-04-24T10:35:09;5.35;;;3.85;;
15635;SDS011;7917;50.818;6.972;2023-04-24T10:37:43;4.75;;;3.90;;
15635;SDS011;7917;50.818;6.972;2023-04-24T10:40:16;7.80;;;4.63;;
15635;SDS011;7917;50.818;6.972;2023-04-24T10:42:46;8.52;;;4.88;;
15635;SDS011;7917;50.818;6.972;2023-04-24T10:45:16;9.68;;;4.75;;
15635;SDS011;7917;50.818;6.972;2023-04-24T10:47:50;8.70;;;5.38;;
15635;SDS011;7917;50.818;6.972;2023-04-24T10:50:22;5.93;;;4.35;;
15635;SDS011;7917;50.818;6.972;2023-04-24T10:52:49;7.63;;;4.13;;
15635;SDS011;7917;50.818;6.972;2023-04-24T10:55:32;7.85;;;4.47;;
15635;SDS011;7917;50.818;6.972;2023-04-24T10:58:06;8.10;;;4.63;;
15635;SDS011;7917;50.818;6.972;2023-04-24T11:00:34;7.93;;;4.95;;
15635;SDS011;7917;50.818;6.972;2023-04-24T11:03:03;7.80;;;4.65;;
15635;SDS011;7917;50.818;6.972;2023-04-24T11:05:50;9.50;;;4.30;;
15635;SDS011;7917;50.818;6.972;2023-04-24T11:08:28;11.73;;;4.68;;
15635;SDS011;7917;50.818;6.972;2023-04-24T11:11:02;13.63;;;4.93;;
15635;SDS011;7917;50.818;6.972;2023-04-24T11:16:28;9.70;;;5.57;;
15635;SDS011;7917;50.818;6.972;2023-04-24T11:19:01;10.38;;;6.60;;
15635;SDS011;7917;50.818;6.972;2023-04-24T11:21:32;9.30;;;6.45;;
15635;SDS011;7917;50.818;6.972;2023-04-24T11:24:23;11.50;;;7.65;;
15635;SDS011;7917;50.818;6.972;2023-04-24T11:26:51;11.38;;;7.90;;
15635;SDS011;7917;50.818;6.972;2023-04-24T11:29:19;15.23;;;7.78;;
15635;SDS011;7917;50.818;6.972;2023-04-24T11:31:47;16.70;;;8.07;;
15635;SDS011;7917;50.818;6.972;2023-04-24T11:34:17;12.15;;;7.38;;
15635;SDS011;7917;50.818;6.972;2023-04-24T11:36:44;9.88;;;5.93;;
15635;SDS011;7917;50.818;6.972;2023-04-24T11:39:11;15.30;;;6.80;;
15635;SDS011;7917;50.818;6.972;2023-04-24T11:41:39;12.20;;;6.22;;
15635;SDS011;7917;50.818;6.972;2023-04-24T11:44:07;9.40;;;6.18;;
15635;SDS011;7917;50.818;6.972;2023-04-24T11:46:35;10.27;;;5.90;;
15635;SDS011;7917;50.818;6.972;2023-04-24T11:49:03;9.40;;;5.65;;
15635;SDS011;7917;50.818;6.972;2023-04-24T11:51:30;9.10;;;5.72;;
15635;SDS011;7917;50.818;6.972;2023-04-24T11:53:58;8.30;;;5.18;;
15635;SDS011;7917;50.818;6.972;2023-04-24T11:56:25;10.75;;;5.28;;
15635;SDS011;7917;50.818;6.972;2023-04-24T11:58:52;10.82;;;5.32;;
15635;SDS011;7917;50.818;6.972;2023-04-24T12:01:20;9.32;;;5.05;;
15635;SDS011;7917;50.818;6.972;2023-04-24T12:03:48;10.60;;;5.50;;
15635;SDS011;7917;50.818;6.972;2023-04-24T12:06:16;12.65;;;5.30;;
15635;SDS011;7917;50.818;6.972;2023-04-24T12:08:45;11.00;;;5.45;;
15635;SDS011;7917;50.818;6.972;2023-04-24T12:11:14;9.10;;;5.30;;
15635;SDS011;7917;50.818;6.972;2023-04-24T12:13:43;9.57;;;5.20;;
15635;SDS011;7917;50.818;6.972;2023-04-24T12:16:10;11.23;;;6.22;;
15635;SDS011;7917;50.818;6.972;2023-04-24T12:18:42;12.90;;;6.35;;
15635;SDS011;7917;50.818;6.972;2023-04-24T12:21:17;11.13;;;6.47;;
15635;SDS011;7917;50.818;6.972;2023-04-24T12:23:45;9.18;;;6.35;;
15635;SDS011;7917;50.818;6.972;2023-04-24T12:26:15;13.48;;;6.75;;
15635;SDS011;7917;50.818;6.972;2023-04-24T12:28:45;11.25;;;6.70;;
15635;SDS011;7917;50.818;6.972;2023-04-24T12:31:16;14.27;;;7.18;;
15635;SDS011;7917;50.818;6.972;2023-04-24T12:33:49;12.77;;;7.00;;
15635;SDS011;7917;50.818;6.972;2023-04-24T12:36:16;14.77;;;7.72;;
15635;SDS011;7917;50.818;6.972;2023-04-24T12:38:43;13.13;;;6.65;;
15635;SDS011;7917;50.818;6.972;2023-04-24T12:41:12;7.47;;;5.13;;
15635;SDS011;7917;50.818;6.972;2023-04-24T12:43:50;11.73;;;6.30;;
15635;SDS011;7917;50.818;6.972;2023-04-24T12:46:18;9.68;;;6.10;;
15635;SDS011;7917;50.818;6.972;2023-04-24T12:48:45;10.35;;;4.82;;
15635;SDS011;7917;50.818;6.972;2023-04-24T12:51:12;8.23;;;6.13;;
15635;SDS011;7917;50.818;6.972;2023-04-24T12:53:39;8.82;;;6.35;;
15635;SDS011;7917;50.818;6.972;2023-04-24T12:56:06;16.70;;;6.13;;
15635;SDS011;7917;50.818;6.972;2023-04-24T12:58:32;11.85;;;5.80;;
15635;SDS011;7917;50.818;6.972;2023-04-24T13:00:59;16.70;;;5.85;;
15635;SDS011;7917;50.818;6.972;2023-04-24T13:03:26;11.85;;;5.40;;
15635;SDS011;7917;50.818;6.972;2023-04-24T13:05:53;8.63;;;4.85;;
15635;SDS011;7917;50.818;6.972;2023-04-24T13:08:23;10.45;;;4.88;;
15635;SDS011;7917;50.818;6.972;2023-04-24T13:10:50;9.18;;;5.22;;
15635;SDS011;7917;50.818;6.972;2023-04-24T13:13:19;9.43;;;4.75;;
15635;SDS011;7917;50.818;6.972;2023-04-24T13:15:46;12.88;;;5.20;;
15635;SDS011;7917;50.818;6.972;2023-04-24T13:18:12;12.43;;;5.13;;
15635;SDS011;7917;50.818;6.972;2023-04-24T13:20:39;11.15;;;6.10;;
15635;SDS011;7917;50.818;6.972;2023-04-24T13:23:06;8.82;;;5.15;;
15635;SDS011;7917;50.818;6.972;2023-04-24T13:25:35;8.43;;;4.40;;
15635;SDS011;7917;50.818;6.972;2023-04-24T13:28:04;11.52;;;4.85;;
15635;SDS011;7917;50.818;6.972;2023-04-24T13:30:31;12.27;;;4.70;;
15635;SDS011;7917;50.818;6.972;2023-04-24T13:32:58;9.48;;;5.03;;
15635;SDS011;7917;50.818;6.972;2023-04-24T13:35:25;8.85;;;5.20;;
15635;SDS011;7917;50.818;6.972;2023-04-24T13:37:52;8.30;;;5.07;;
15635;SDS011;7917;50.818;6.972;2023-04-24T13:40:19;11.85;;;5.20;;
15635;SDS011;7917;50.818;6.972;2023-04-24T13:42:47;11.88;;;5.32;;
15635;SDS011;7917;50.818;6.972;2023-04-24T13:45:14;11.43;;;5.50;;
15635;SDS011;7917;50.818;6.972;2023-04-24T13:47:40;11.65;;;5.60;;
15635;SDS011;7917;50.818;6.972;2023-04-24T13:50:07;9.77;;;5.18;;
15635;SDS011;7917;50.818;6.972;2023-04-24T13:52:35;9.38;;;5.15;;
15635;SDS011;7917;50.818;6.972;2023-04-24T13:55:02;10.50;;;5.70;;
15635;SDS011;7917;50.818;6.972;2023-04-24T13:57:29;9.40;;;5.28;;
15635;SDS011;7917;50.818;6.972;2023-04-24T13:59:58;8.73;;;5.70;;
15635;SDS011;7917;50.818;6.972;2023-04-24T14:02:26;11.63;;;5.40;;
15635;SDS011;7917;50.818;6.972;2023-04-24T14:04:53;21.48;;;6.95;;
15635;SDS011;7917;50.818;6.972;2023-04-24T14:07:23;12.18;;;7.03;;
15635;SDS011;7917;50.818;6.972;2023-04-24T14:09:54;12.02;;;6.20;;
15635;SDS011;7917;50.818;6.972;2023-04-24T14:12:24;10.30;;;6.03;;
15635;SDS011;7917;50.818;6.972;2023-04-24T14:14:53;12.85;;;6.60;;
15635;SDS011;7917;50.818;6.972;2023-04-24T14:17:22;16.90;;;5.80;;
15635;SDS011;7917;50.818;6.972;2023-04-24T14:19:49;12.35;;;5.28;;
15635;SDS011;7917;50.818;6.972;2023-04-24T14:22:17;11.73;;;5.60;;
15635;SDS011;7917;50.818;6.972;2023-04-24T14:24:44;9.80;;;5.45;;
15635;SDS011;7917;50.818;6.972;2023-04-24T14:27:10;11.23;;;6.05;;
15635;SDS011;7917;50.818;6.972;2023-04-24T14:29:37;8.18;;;4.90;;
15635;SDS011;7917;50.818;6.972;2023-04-24T14:32:08;9.48;;;5.20;;
15635;SDS011;7917;50.818;6.972;2023-04-24T14:34:35;14.90;;;6.20;;
15635;SDS011;7917;50.818;6.972;2023-04-24T14:37:02;9.70;;;5.40;;
15635;SDS011;7917;50.818;6.972;2023-04-24T14:39:29;8.10;;;4.93;;
15635;SDS011;7917;50.818;6.972;2023-04-24T14:41:56;12.25;;;5.38;;
15635;SDS011;7917;50.818;6.972;2023-04-24T14:44:23;9.30;;;4.40;;
15635;SDS011;7917;50.818;6.972;2023-04-24T14:46:50;10.05;;;4.57;;
15635;SDS011;7917;50.818;6.972;2023-04-24T14:49:17;9.80;;;5.22;;
15635;SDS011;7917;50.818;6.972;2023-04-24T14:51:44;7.43;;;4.45;;
15635;SDS011;7917;50.818;6.972;2023-04-24T14:54:11;6.80;;;4.18;;
15635;SDS011;7917;50.818;6.972;2023-04-24T14:56:38;7.95;;;4.50;;
15635;SDS011;7917;50.818;6.972;2023-04-24T14:59:06;8.85;;;3.85;;
15635;SDS011;7917;50.818;6.972;2023-04-24T15:01:33;7.55;;;4.05;;
15635;SDS011;7917;50.818;6.972;2023-04-24T15:03:59;7.68;;;4.28;;
15635;SDS011;7917;50.818;6.972;2023-04-24T15:06:26;7.60;;;3.92;;
15635;SDS011;7917;50.818;6.972;2023-04-24T15:08:56;9.80;;;4.53;;
15635;SDS011;7917;50.818;6.972;2023-04-24T15:11:23;7.28;;;4.50;;